Time;durP1;ratioP1;P1;durP2;ratioP2;P2;SDS_P1;SDS_P2;PMS_P1;PMS_P2;Temp;Humidity;BMP_temperature;BMP_pressure;BME280_temperature;BME280_humidity;BME280_pressure;Samples;Min_cycle;Max_cycle;Signal;HPM_P1;HPM_P2
2023/01/03 00:02:45;;;;;;;16.53;7.23;;;;;;;3.45;100.00;102449.75;6186788;23;20051;-94
2023/01/03 00:05:16;;;;;;;27.33;8.23;;;;;;;3.40;100.00;102451.25;6066356;23;20015;-93
2023/01/03 00:07:41;;;;;;;16.83;7.45;;;;;;;3.38;100.00;102455.91;6175785;23;20375;-93
2023/01/03 00:10:09;;;;;;;17.93;6.90;;;;;;;3.35;100.00;102461.56;6190361;23;20016;-93
2023/01/03 00:12:36;;;;;;;14.15;7.07;;;;;;;3.25;100.00;102453.78;6180310;23;20040;-94
2023/01/03 00:15:02;;;;;;;21.10;7.90;;;;;;;3.27;100.00;102459.75;6205970;23;20006;-93
2023/01/03 00:17:32;;;;;;;15.85;7.95;;;;;;;3.28;100.00;102456.09;6161588;23;20155;-94
2023/01/03 00:19:57;;;;;;;18.80;8.25;;;;;;;3.25;100.00;102453.78;6185148;23;20024;-94
2023/01/03 00:22:23;;;;;;;18.33;8.63;;;;;;;3.21;100.00;102457.75;6191143;23;20005;-93
2023/01/03 00:24:50;;;;;;;14.48;6.97;;;;;;;3.10;100.00;102461.56;6187121;23;20061;-93
2023/01/03 00:27:16;;;;;;;19.33;7.23;;;;;;;3.04;100.00;102452.47;6186850;23;20024;-91
2023/01/03 00:29:41;;;;;;;20.35;7.20;;;;;;;3.05;100.00;102454.16;6185754;23;20005;-92
2023/01/03 00:32:07;;;;;;;17.83;7.50;;;;;;;3.00;100.00;102465.25;6185807;23;20080;-92
2023/01/03 00:34:34;;;;;;;12.35;6.80;;;;;;;2.93;100.00;102461.59;6187552;23;20375;-92
2023/01/03 00:37:00;;;;;;;24.00;7.68;;;;;;;2.84;100.00;102463.41;6188540;23;20005;-94
2023/01/03 00:39:26;;;;;;;16.67;7.70;;;;;;;2.82;100.00;102462.75;6191390;23;20029;-92
2023/01/03 00:41:52;;;;;;;13.43;7.10;;;;;;;2.76;100.00;102479.28;6206864;23;20001;-93
2023/01/03 00:44:19;;;;;;;18.65;7.75;;;;;;;2.71;100.00;102479.78;6211899;23;20020;-92
2023/01/03 00:46:45;;;;;;;20.13;7.43;;;;;;;2.64;100.00;102473.53;6211241;23;20013;-94
2023/01/03 00:49:11;;;;;;;24.57;7.37;;;;;;;2.57;100.00;102470.66;6209783;23;20287;-92
2023/01/03 00:51:38;;;;;;;20.60;8.30;;;;;;;2.54;100.00;102478.13;6211824;23;20009;-94
2023/01/03 00:54:05;;;;;;;17.98;7.85;;;;;;;2.52;100.00;102474.81;6210215;23;20001;-92
2023/01/03 00:56:34;;;;;;;19.83;7.70;;;;;;;2.47;100.00;102477.94;6190933;23;20012;-92
2023/01/03 00:59:00;;;;;;;20.67;8.13;;;;;;;2.46;100.00;102472.81;6190715;23;20236;-94
2023/01/03 01:01:28;;;;;;;19.60;9.20;;;;;;;2.46;100.00;102483.41;6190988;23;20376;-93
2023/01/03 01:04:01;;;;;;;19.95;8.82;;;;;;;2.43;100.00;102479.25;6188879;23;20005;-94
2023/01/03 01:06:42;;;;;;;24.15;9.00;;;;;;;2.38;100.00;102484.19;6188650;23;20005;-95
2023/01/03 01:09:10;;;;;;;24.65;9.57;;;;;;;2.40;100.00;102487.50;6187934;23;20032;-93
2023/01/03 01:11:36;;;;;;;23.02;8.73;;;;;;;2.35;100.00;102490.66;6189068;23;20028;-93
2023/01/03 01:14:02;;;;;;;22.23;8.77;;;;;;;2.31;100.00;102484.03;6187551;23;20036;-93
2023/01/03 01:16:30;;;;;;;22.80;9.43;;;;;;;2.26;100.00;102497.75;6188326;23;20441;-93
2023/01/03 01:18:58;;;;;;;19.63;8.90;;;;;;;2.22;100.00;102485.81;6187611;23;20084;-94
2023/01/03 01:21:29;;;;;;;22.58;9.32;;;;;;;2.21;100.00;102500.03;6187384;23;20139;-93
2023/01/03 01:23:54;;;;;;;23.02;9.13;;;;;;;2.16;100.00;102502.34;6187447;23;20001;-93
2023/01/03 01:26:22;;;;;;;21.13;9.50;;;;;;;2.10;100.00;102497.69;6187198;23;20016;-93
2023/01/03 01:28:48;;;;;;;27.08;10.15;;;;;;;2.15;100.00;102516.56;6186925;23;20001;-93
2023/01/03 01:31:17;;;;;;;29.97;9.90;;;;;;;2.19;100.00;102512.59;6187713;23;20009;-94
2023/01/03 01:33:58;;;;;;;21.43;9.57;;;;;;;2.01;100.00;102486.25;6185906;22;20272;-93
2023/01/03 01:36:48;;;;;;;22.00;10.85;;;;;;;1.90;100.00;102473.34;6187912;23;20001;-93
2023/01/03 01:39:25;;;;;;;30.20;11.23;;;;;;;2.01;100.00;102493.38;6200993;23;19985;-94
2023/01/03 01:45:14;;;;;;;30.80;11.27;;;;;;;2.05;100.00;102508.75;6187659;23;20539;-93
2023/01/03 01:47:51;;;;;;;22.63;10.63;;;;;;;1.86;100.00;102490.50;6210855;23;20203;-93
2023/01/03 01:50:41;;;;;;;24.63;10.18;;;;;;;1.89;100.00;102521.91;6191239;23;20086;-93
2023/01/03 01:53:16;;;;;;;31.13;11.00;;;;;;;1.80;100.00;102515.75;6187853;23;20012;-93
2023/01/03 01:55:49;;;;;;;21.33;10.63;;;;;;;1.76;100.00;102522.34;6187772;23;20067;-94
2023/01/03 01:58:15;;;;;;;23.85;10.43;;;;;;;1.79;100.00;102535.25;6188823;23;20012;-93
2023/01/03 02:00:42;;;;;;;24.77;10.35;;;;;;;1.77;100.00;102532.75;6188748;23;20005;-94
2023/01/03 02:03:11;;;;;;;30.55;11.48;;;;;;;1.84;100.00;102538.22;6189279;23;20036;-93
2023/01/03 02:05:40;;;;;;;29.00;11.40;;;;;;;1.79;100.00;102536.06;6192237;23;20088;-93
2023/01/03 02:08:06;;;;;;;33.13;10.43;;;;;;;1.72;100.00;102542.13;6190947;23;20240;-93
2023/01/03 02:11:05;;;;;;;27.50;11.20;;;;;;;1.64;100.00;102535.78;6192806;23;20017;-93
2023/01/03 02:13:40;;;;;;;26.23;10.80;;;;;;;1.66;100.00;102538.31;6190884;23;20081;-93
2023/01/03 02:16:23;;;;;;;33.70;12.17;;;;;;;1.70;100.00;102528.22;6188578;23;20268;-91
2023/01/03 02:19:25;;;;;;;30.90;13.25;;;;;;;1.74;100.00;102524.31;6186560;23;20024;-95
2023/01/03 02:22:05;;;;;;;31.80;12.48;;;;;;;1.75;100.00;102531.25;6186524;23;20020;-94
2023/01/03 02:25:07;;;;;;;30.15;12.00;;;;;;;1.75;100.00;102541.81;6188022;23;20005;-93
2023/01/03 02:27:57;;;;;;;26.45;11.35;;;;;;;1.68;100.00;102536.34;6186251;23;20009;-93
2023/01/03 02:30:35;;;;;;;26.10;11.57;;;;;;;1.62;100.00;102542.22;6187015;23;20049;-95
2023/01/03 02:33:10;;;;;;;23.53;11.00;;;;;;;1.62;100.00;102539.59;6186986;23;20005;-94
2023/01/03 02:35:46;;;;;;;29.03;12.37;;;;;;;1.59;100.00;102542.53;6188126;23;20240;-94
2023/01/03 02:38:22;;;;;;;33.88;12.57;;;;;;;1.52;100.00;102537.03;6189711;23;20019;-94
2023/01/03 02:41:34;;;;;;;30.38;11.45;;;;;;;1.47;100.00;102534.88;6162368;23;20056;-93
2023/01/03 02:44:10;;;;;;;25.13;11.43;;;;;;;1.37;100.00;102534.13;6080225;23;20490;-95
2023/01/03 02:46:55;;;;;;;34.05;11.38;;;;;;;1.32;100.00;102524.03;6180412;23;20020;-93
2023/01/03 02:49:28;;;;;;;27.02;10.85;;;;;;;1.36;100.00;102529.84;6189403;23;20001;-94
2023/01/03 02:52:01;;;;;;;28.03;10.93;;;;;;;1.23;100.00;102508.28;6188027;22;20016;-93
2023/01/03 02:54:49;;;;;;;30.67;11.97;;;;;;;1.33;100.00;102517.78;6189728;23;20331;-93
2023/01/03 02:57:22;;;;;;;33.15;13.48;;;;;;;1.53;100.00;102532.59;6188171;23;20043;-93
2023/01/03 03:00:12;;;;;;;33.75;11.50;;;;;;;1.35;100.00;102510.53;6188693;23;20005;-94
2023/01/03 03:02:43;;;;;;;36.25;13.02;;;;;;;1.57;100.00;102539.22;6164200;23;20088;-90
2023/01/03 03:05:38;;;;;;;32.63;12.73;;;;;;;1.59;100.00;102530.16;6163705;23;20024;-89
2023/01/03 03:08:03;;;;;;;35.72;12.98;;;;;;;1.59;100.00;102524.88;6147653;23;20218;-91
2023/01/03 03:13:30;;;;;;;55.28;13.60;;;;;;;1.56;100.00;102530.47;6197073;23;20230;-90
2023/01/03 03:16:14;;;;;;;26.98;11.95;;;;;;;1.54;100.00;102532.44;6202348;23;20005;-91
2023/01/03 03:19:02;;;;;;;28.23;11.95;;;;;;;1.44;100.00;102534.38;6185944;23;20001;-91
2023/01/03 03:30:31;;;;;;;32.17;11.83;;;;;;;1.28;100.00;102519.22;6186343;23;20295;-91
2023/01/03 03:33:10;;;;;;;26.38;11.90;;;;;;;1.29;100.00;102513.78;6187038;23;20008;-91
2023/01/03 03:36:13;;;;;;;32.22;11.93;;;;;;;1.42;100.00;102526.56;6186603;23;20413;-91
2023/01/03 03:38:51;;;;;;;33.30;12.93;;;;;;;1.30;100.00;102520.72;6195617;23;20005;-92
2023/01/03 03:47:40;;;;;;;26.00;10.50;;;;;;;1.27;100.00;102523.69;6209797;23;20032;-91
2023/01/03 03:50:24;;;;;;;25.17;11.10;;;;;;;1.17;100.00;102515.00;6210875;23;20236;-91
2023/01/03 03:53:09;;;;;;;24.42;11.25;;;;;;;1.20;100.00;102512.88;6192421;23;20005;-91
2023/01/03 03:56:01;;;;;;;34.58;12.23;;;;;;;1.25;100.00;102514.25;6186779;23;20025;-90
2023/01/03 03:58:31;;;;;;;26.35;10.75;;;;;;;1.21;100.00;102513.72;6183694;23;20005;-91
2023/01/03 04:00:59;;;;;;;27.70;11.30;;;;;;;1.16;100.00;102500.16;6186036;23;20131;-92
2023/01/03 04:03:29;;;;;;;35.20;12.50;;;;;;;1.29;100.00;102524.34;6186505;23;20016;-92
2023/01/03 04:05:59;;;;;;;35.42;12.82;;;;;;;1.27;100.00;102518.41;6176825;23;20009;-91
2023/01/03 04:08:27;;;;;;;32.33;12.70;;;;;;;1.21;100.00;102514.53;6162560;23;20009;-92
2023/01/03 04:11:04;;;;;;;36.00;12.20;;;;;;;1.34;100.00;102529.19;6189480;23;20001;-92
2023/01/03 04:13:33;;;;;;;34.47;11.73;;;;;;;1.40;100.00;102544.38;6199576;23;20001;-90
2023/01/03 04:15:59;;;;;;;33.55;12.52;;;;;;;1.37;100.00;102536.78;6212462;23;19993;-92
2023/01/03 04:18:24;;;;;;;36.53;12.43;;;;;;;1.33;100.00;102532.81;6210059;23;20028;-91
2023/01/03 04:20:50;;;;;;;32.90;12.07;;;;;;;1.27;100.00;102533.41;6210973;23;20055;-92
2023/01/03 04:23:15;;;;;;;37.33;12.13;;;;;;;1.25;100.00;102530.94;6210174;23;20232;-90
2023/01/03 04:25:42;;;;;;;36.80;12.47;;;;;;;1.31;100.00;102525.00;6206309;23;20001;-91
2023/01/03 04:28:07;;;;;;;38.10;13.25;;;;;;;1.38;100.00;102524.41;6189146;23;20005;-90
2023/01/03 04:30:34;;;;;;;42.50;14.43;;;;;;;1.43;100.00;102528.25;6187888;23;20512;-91
2023/01/03 04:33:04;;;;;;;38.40;13.95;;;;;;;1.47;100.00;102534.88;6187074;23;20072;-91
2023/01/03 04:35:31;;;;;;;42.78;15.02;;;;;;;1.49;100.00;102529.44;6198034;23;20000;-92
2023/01/03 04:37:56;;;;;;;47.22;15.90;;;;;;;1.54;100.00;102529.78;6203272;23;20116;-91
2023/01/03 04:40:23;;;;;;;43.83;15.17;;;;;;;1.55;100.00;102536.75;6186222;23;20500;-90
2023/01/03 04:45:34;;;;;;;45.30;15.15;;;;;;;1.59;100.00;102527.53;6192749;23;20471;-90
2023/01/03 04:48:00;;;;;;;48.72;17.25;;;;;;;1.61;100.00;102543.22;6187193;23;20072;-89
2023/01/03 04:50:25;;;;;;;53.07;15.57;;;;;;;1.55;100.00;102536.75;6187357;23;20028;-89
2023/01/03 04:52:50;;;;;;;51.20;17.10;;;;;;;1.59;100.00;102538.09;6185970;23;20016;-90
2023/01/03 04:55:16;;;;;;;64.00;20.30;;;;;;;1.66;100.00;102544.41;6187935;23;20071;-93
2023/01/03 04:57:41;;;;;;;66.60;20.23;;;;;;;1.69;100.00;102539.78;6186385;23;20417;-90
2023/01/03 05:00:08;;;;;;;62.47;18.27;;;;;;;1.71;100.00;102537.81;6185505;23;20329;-88
2023/01/03 05:02:34;;;;;;;63.70;18.52;;;;;;;1.73;100.00;102538.50;6185070;23;20005;-89
2023/01/03 05:04:59;;;;;;;71.63;20.30;;;;;;;1.71;100.00;102538.66;6185778;23;20001;-90
2023/01/03 05:07:27;;;;;;;65.40;17.80;;;;;;;1.74;100.00;102540.16;6184953;23;20040;-90
2023/01/03 05:09:52;;;;;;;58.53;17.75;;;;;;;1.71;100.00;102530.75;6185835;23;20001;-88
2023/01/03 05:12:17;;;;;;;59.10;16.70;;;;;;;1.68;100.00;102525.75;6185500;23;20009;-90
2023/01/03 05:14:42;;;;;;;74.23;18.43;;;;;;;1.74;100.00;102525.13;6184589;23;20065;-89
2023/01/03 05:17:08;;;;;;;60.17;17.40;;;;;;;1.82;100.00;102519.06;6185271;23;20004;-89
2023/01/03 05:19:34;;;;;;;72.73;19.47;;;;;;;1.84;100.00;102511.78;6187179;23;20410;-88
2023/01/03 05:27:27;;;;;;;52.33;15.23;;;;;;;1.72;100.00;102528.91;6184659;23;20271;-89
2023/01/03 05:29:54;;;;;;;53.97;16.42;;;;;;;1.70;100.00;102522.94;6184672;23;20009;-90
2023/01/03 05:32:19;;;;;;;48.90;15.63;;;;;;;1.70;100.00;102522.94;6185818;23;20020;-89
2023/01/03 05:34:45;;;;;;;59.07;15.90;;;;;;;1.70;100.00;102515.03;6184255;23;20244;-89
2023/01/03 05:37:10;;;;;;;48.73;15.00;;;;;;;1.69;100.00;102523.94;6184160;23;20373;-86
2023/01/03 05:39:36;;;;;;;46.78;14.80;;;;;;;1.66;100.00;102517.97;6183612;23;20017;-87
2023/01/03 05:42:01;;;;;;;46.10;14.47;;;;;;;1.70;100.00;102517.66;6184657;23;20009;-90
2023/01/03 05:44:32;;;;;;;51.63;13.93;;;;;;;1.66;100.00;102517.97;6184728;23;20007;-86
2023/01/03 05:47:00;;;;;;;52.72;15.00;;;;;;;1.67;100.00;102524.91;6185067;23;20016;-89
2023/01/03 05:49:26;;;;;;;48.03;15.05;;;;;;;1.70;100.00;102512.38;6188437;23;20005;-89
2023/01/03 05:51:51;;;;;;;54.43;14.37;;;;;;;1.66;100.00;102502.13;6185536;23;20362;-90
2023/01/03 05:54:19;;;;;;;52.70;14.80;;;;;;;1.70;100.00;102502.66;6184482;23;20437;-87
2023/01/03 05:56:44;;;;;;;53.40;15.23;;;;;;;1.67;100.00;102509.06;6184315;23;20259;-88
2023/01/03 05:59:10;;;;;;;88.95;17.33;;;;;;;1.73;100.00;102512.06;6184101;23;20013;-87
2023/01/03 06:01:35;;;;;;;60.50;17.70;;;;;;;1.69;100.00;102511.56;6184606;23;20013;-89
2023/01/03 06:04:01;;;;;;;46.38;16.23;;;;;;;1.63;100.00;102506.91;6189130;23;20001;-86
2023/01/03 06:06:26;;;;;;;51.33;16.00;;;;;;;1.66;100.00;102506.59;6209034;23;19996;-87
2023/01/03 06:08:53;;;;;;;56.40;18.77;;;;;;;1.72;100.00;102498.03;6187453;23;20059;-88
2023/01/03 06:11:18;;;;;;;52.83;15.43;;;;;;;1.80;100.00;102498.06;6164020;23;19993;-88
2023/01/03 06:13:44;;;;;;;62.43;18.80;;;;;;;1.92;100.00;102495.13;6209617;23;20054;-87
2023/01/03 06:18:59;;;;;;;76.97;24.40;;;;;;;2.12;100.00;102496.53;6184173;23;20051;-87
2023/01/03 06:21:24;;;;;;;69.17;21.60;;;;;;;2.18;100.00;102500.38;6184094;23;20080;-87
2023/01/03 06:23:49;;;;;;;57.10;18.13;;;;;;;2.25;100.00;102496.09;6184593;23;20306;-86
2023/01/03 06:26:17;;;;;;;58.50;16.47;;;;;;;2.32;100.00;102495.44;6184513;23;20001;-86
2023/01/03 06:28:42;;;;;;;65.30;20.67;;;;;;;2.38;100.00;102502.72;6182917;23;20380;-90
2023/01/03 06:31:08;;;;;;;66.23;25.67;;;;;;;2.39;100.00;102493.78;6182662;23;20011;-88
2023/01/03 06:33:34;;;;;;;63.28;20.90;;;;;;;2.43;100.00;102489.84;6184330;23;20016;-84
2023/01/03 06:36:04;;;;;;;64.38;21.65;;;;;;;2.51;100.00;102491.66;6183501;23;20005;-85
2023/01/03 06:38:30;;;;;;;55.93;16.03;;;;;;;2.52;100.00;102490.69;6183536;23;19997;-87
2023/01/03 06:40:55;;;;;;;51.67;15.15;;;;;;;2.49;100.00;102491.84;6182963;23;20005;-84
2023/01/03 06:43:20;;;;;;;41.83;14.63;;;;;;;2.51;100.00;102497.81;6182353;23;20001;-86
2023/01/03 06:53:51;;;;;;;46.25;13.40;;;;;;;2.31;100.00;102469.97;6184091;23;20051;-85
2023/01/03 06:56:24;;;;;;;45.43;13.37;;;;;;;2.28;100.00;102463.22;6183842;23;20005;-85
2023/01/03 06:58:50;;;;;;;48.83;15.60;;;;;;;2.47;100.00;102485.88;6156258;23;20484;-85
2023/01/03 07:01:15;;;;;;;71.60;27.63;;;;;;;2.44;100.00;102472.16;6184148;23;20005;-85
2023/01/03 07:03:41;;;;;;;48.17;16.17;;;;;;;2.47;100.00;102461.22;6184125;23;20027;-85
2023/01/03 07:06:06;;;;;;;50.57;13.97;;;;;;;2.52;100.00;102461.56;6184683;23;20005;-86
2023/01/03 07:08:32;;;;;;;41.55;13.07;;;;;;;2.53;100.00;102461.44;6181828;23;20001;-85
2023/01/03 07:10:59;;;;;;;52.93;16.97;;;;;;;2.61;100.00;102470.34;6183949;23;20008;-87
2023/01/03 07:16:18;;;;;;;38.40;13.38;;;;;;;2.63;100.00;102471.00;6182656;23;20024;-84
2023/01/03 07:18:43;;;;;;;39.92;14.30;;;;;;;2.62;100.00;102486.09;6181396;23;20029;-84
2023/01/03 07:21:09;;;;;;;37.60;13.70;;;;;;;2.61;100.00;102499.47;6157225;23;20001;-85
2023/01/03 07:23:34;;;;;;;39.47;12.52;;;;;;;2.61;100.00;102515.34;6154777;23;20016;-85
2023/01/03 07:26:00;;;;;;;44.77;13.40;;;;;;;2.63;100.00;102505.44;6183427;23;20368;-85
2023/01/03 07:28:25;;;;;;;46.37;15.30;;;;;;;2.78;100.00;102522.31;6182827;23;20001;-85
2023/01/03 07:30:51;;;;;;;41.90;13.93;;;;;;;2.88;100.00;102523.00;6182197;23;20020;-84
2023/01/03 07:33:17;;;;;;;42.10;12.53;;;;;;;3.00;100.00;102522.66;6183066;23;20013;-85
2023/01/03 07:35:43;;;;;;;43.50;13.13;;;;;;;3.14;100.00;102516.69;6207539;23;20009;-84
2023/01/03 07:38:11;;;;;;;53.40;14.20;;;;;;;3.30;100.00;102521.16;6184757;23;20055;-83
2023/01/03 07:40:36;;;;;;;50.27;13.23;;;;;;;3.38;100.00;102509.72;6185919;23;20225;-85
2023/01/03 07:45:46;;;;;;;59.80;15.50;;;;;;;3.70;100.00;102509.84;6185423;23;20028;-86
2023/01/03 07:48:13;;;;;;;56.03;14.60;;;;;;;3.73;100.00;102507.66;6182776;23;20007;-85
2023/01/03 07:50:39;;;;;;;57.27;15.47;;;;;;;3.75;100.00;102505.66;6183519;23;20283;-85
2023/01/03 07:53:06;;;;;;;51.50;14.38;;;;;;;3.75;100.00;102508.31;6184257;23;20005;-84
2023/01/03 07:55:33;;;;;;;54.97;14.68;;;;;;;3.79;100.00;102516.75;6180929;23;20051;-87
2023/01/03 07:57:58;;;;;;;57.30;15.73;;;;;;;3.78;100.00;102523.91;6183225;23;20016;-88
2023/01/03 08:00:24;;;;;;;70.47;20.08;;;;;;;3.80;100.00;102523.72;6184693;23;20088;-86
2023/01/03 08:02:53;;;;;;;66.50;18.97;;;;;;;3.78;100.00;102526.53;6183496;23;20055;-87
2023/01/03 08:05:20;;;;;;;52.92;13.93;;;;;;;3.68;100.00;102525.09;6184186;23;20005;-85
2023/01/03 08:07:49;;;;;;;55.75;14.90;;;;;;;3.64;100.00;102529.91;6183650;23;20009;-86
2023/01/03 08:13:18;;;;;;;44.75;12.00;;;;;;;3.48;100.00;102536.06;6183517;23;20024;-85
2023/01/03 08:15:44;;;;;;;41.83;12.47;;;;;;;3.49;100.00;102538.53;6156177;23;20009;-86
2023/01/03 08:18:10;;;;;;;52.83;15.57;;;;;;;3.59;100.00;102545.47;6156344;23;20247;-85
2023/01/03 08:20:36;;;;;;;53.53;14.32;;;;;;;3.70;100.00;102547.75;6183469;23;20128;-87
2023/01/03 08:23:01;;;;;;;45.70;13.93;;;;;;;3.77;100.00;102548.75;6156345;23;20056;-86
2023/01/03 08:25:33;;;;;;;58.77;15.37;;;;;;;3.67;100.00;102518.13;6181286;22;20260;-89
2023/01/03 08:27:59;;;;;;;54.10;15.05;;;;;;;3.98;100.00;102555.31;6155798;23;20009;-84
2023/01/03 08:30:25;;;;;;;60.67;16.33;;;;;;;3.86;100.00;102528.34;6181674;23;20161;-85
2023/01/03 08:32:53;;;;;;;56.47;16.20;;;;;;;4.01;100.00;102530.28;6153385;23;20001;-84
2023/01/03 08:35:29;;;;;;;55.13;13.20;;;;;;;4.16;100.00;102539.16;6154283;23;20063;-84
2023/01/03 08:38:43;;;;;;;56.08;13.13;;;;;;;4.09;100.00;102525.75;6153247;23;20018;-85
2023/01/03 08:41:20;;;;;;;58.20;17.00;;;;;;;4.26;100.00;102538.13;6034476;23;20046;-89
2023/01/03 08:43:47;;;;;;;57.83;13.97;;;;;;;4.35;100.00;102547.69;6033338;23;20271;-88
2023/01/03 08:46:21;;;;;;;54.25;15.35;;;;;;;4.36;100.00;102550.19;6010960;23;20043;-88
2023/01/03 08:48:47;;;;;;;55.10;13.57;;;;;;;4.45;100.00;102563.41;6060157;23;20013;-86
2023/01/03 08:51:12;;;;;;;59.55;15.30;;;;;;;4.55;100.00;102570.16;6126007;23;20160;-87
2023/01/03 08:53:38;;;;;;;44.90;13.30;;;;;;;4.54;100.00;102568.50;6153140;23;20008;-86
2023/01/03 08:56:03;;;;;;;53.23;15.93;;;;;;;4.64;100.00;102580.75;6154244;23;20017;-87
2023/01/03 08:58:28;;;;;;;46.23;13.67;;;;;;;4.70;100.00;102578.22;6153273;23;20337;-88
2023/01/03 09:00:54;;;;;;;44.58;12.95;;;;;;;4.77;100.00;102577.50;6153585;23;20009;-87
2023/01/03 09:03:19;;;;;;;52.87;14.97;;;;;;;4.80;100.00;102582.47;6158457;23;20057;-86
2023/01/03 09:05:45;;;;;;;50.93;14.00;;;;;;;4.83;100.00;102580.31;6174781;23;20322;-87
2023/01/03 09:08:10;;;;;;;43.33;13.10;;;;;;;4.87;100.00;102579.94;6163054;23;20016;-88
2023/01/03 09:10:36;;;;;;;46.78;13.15;;;;;;;4.88;100.00;102582.44;6157361;23;20017;-87
2023/01/03 09:13:03;;;;;;;37.93;12.87;;;;;;;4.90;100.00;102591.03;6148383;23;20010;-87
2023/01/03 09:15:29;;;;;;;43.65;13.48;;;;;;;4.90;100.00;102580.41;6135748;23;20037;-87
2023/01/03 09:17:54;;;;;;;46.92;15.10;;;;;;;4.91;100.00;102589.19;6155503;23;20010;-85
2023/01/03 09:20:20;;;;;;;46.17;14.13;;;;;;;4.95;100.00;102591.31;6155291;23;20002;-87
2023/01/03 09:22:49;;;;;;;47.78;14.73;;;;;;;4.96;100.00;102600.13;6155165;23;20016;-86
2023/01/03 09:25:15;;;;;;;36.83;12.98;;;;;;;4.93;100.00;102595.97;6155386;23;20425;-86
2023/01/03 09:27:45;;;;;;;41.83;14.17;;;;;;;4.97;100.00;102593.81;6155435;23;20005;-88
2023/01/03 09:30:12;;;;;;;46.70;14.55;;;;;;;4.99;100.00;102589.16;6155257;23;20414;-87
2023/01/03 09:32:37;;;;;;;43.95;13.80;;;;;;;5.02;100.00;102588.81;6155056;23;20006;-86
2023/01/03 09:35:03;;;;;;;37.80;13.60;;;;;;;5.05;100.00;102587.63;6155622;23;20002;-87
2023/01/03 09:37:28;;;;;;;41.47;13.98;;;;;;;5.06;100.00;102584.78;6154696;23;20005;-88
2023/01/03 09:39:54;;;;;;;45.17;13.33;;;;;;;5.12;100.00;102583.22;6154376;23;20016;-86
2023/01/03 09:45:07;;;;;;;40.03;12.95;;;;;;;5.21;100.00;102591.97;6155759;23;20021;-88
2023/01/03 09:47:36;;;;;;;39.72;13.23;;;;;;;5.25;100.00;102587.97;6155462;23;20013;-86
2023/01/03 09:50:02;;;;;;;36.70;12.85;;;;;;;5.28;100.00;102584.94;6155912;23;20028;-85
2023/01/03 10:04:31;;;;;;;32.38;10.88;;;;;;;5.50;100.00;102590.41;6155175;23;20059;-86
2023/01/03 10:07:05;;;;;;;33.00;11.15;;;;;;;5.53;100.00;102580.22;6155560;23;20005;-87
2023/01/03 10:09:45;;;;;;;31.00;11.30;;;;;;;5.61;100.00;102590.81;6155447;23;20006;-87
2023/01/03 10:12:16;;;;;;;26.10;10.90;;;;;;;5.64;100.00;102586.94;6158520;23;20701;-86
2023/01/03 10:15:00;;;;;;;37.80;11.40;;;;;;;5.66;100.00;102571.63;6143260;23;20036;-84
2023/01/03 10:17:51;;;;;;;31.63;11.27;;;;;;;5.70;100.00;102580.91;6128970;23;20005;-86
2023/01/03 10:20:47;;;;;;;29.27;10.43;;;;;;;5.78;100.00;102580.00;6154918;23;20028;-86
2023/01/03 10:23:12;;;;;;;28.02;10.88;;;;;;;5.83;100.00;102592.75;6147804;23;20012;-87
2023/01/03 10:25:40;;;;;;;30.30;9.97;;;;;;;5.87;100.00;102581.56;6153178;23;20017;-86
2023/01/03 10:28:14;;;;;;;27.67;10.45;;;;;;;5.89;100.00;102589.38;6154091;23;20005;-86
2023/01/03 10:31:20;;;;;;;26.60;10.48;;;;;;;5.96;100.00;102592.13;6154779;23;20006;-86
2023/01/03 10:33:47;;;;;;;28.48;9.93;;;;;;;5.94;100.00;102586.16;6078447;23;20010;-86
2023/01/03 10:36:15;;;;;;;25.02;10.45;;;;;;;5.96;100.00;102581.47;6166962;23;20032;-86
2023/01/03 10:38:43;;;;;;;28.70;10.10;;;;;;;5.99;100.00;102583.78;6176096;23;20338;-86
2023/01/03 10:41:15;;;;;;;26.00;11.10;;;;;;;6.09;100.00;102584.34;6161277;23;20312;-86
2023/01/03 10:43:43;;;;;;;19.13;9.38;;;;;;;6.16;100.00;102582.59;6149560;23;19998;-86
2023/01/03 10:46:20;;;;;;;20.98;9.63;;;;;;;6.17;100.00;102570.09;6180881;23;20005;-86
2023/01/03 10:48:47;;;;;;;22.95;10.02;;;;;;;6.20;100.00;102581.22;6155490;23;19997;-86
2023/01/03 10:51:31;;;;;;;21.90;9.38;;;;;;;6.28;100.00;102571.47;6177378;23;20005;-87
2023/01/03 10:53:59;;;;;;;29.67;10.15;;;;;;;6.41;100.00;102570.81;6159976;23;20002;-87
2023/01/03 10:56:25;;;;;;;26.20;10.53;;;;;;;6.53;100.00;102571.97;6157747;23;20009;-86
2023/01/03 10:59:10;;;;;;;23.53;10.27;;;;;;;6.60;100.00;102566.72;6156117;23;20689;-87
2023/01/03 11:01:36;;;;;;;22.60;10.43;;;;;;;6.63;100.00;102566.34;6155736;23;20013;-86
2023/01/03 11:04:18;;;;;;;23.23;9.38;;;;;;;6.63;100.00;102564.50;6155688;23;20065;-85
2023/01/03 11:07:13;;;;;;;27.75;9.93;;;;;;;6.72;100.00;102567.03;6168634;23;20010;-85
2023/01/03 11:09:52;;;;;;;16.33;8.97;;;;;;;6.73;100.00;102569.53;6157194;23;20084;-85
2023/01/03 11:12:35;;;;;;;15.90;8.73;;;;;;;6.80;100.00;102573.06;6169298;23;20248;-85
2023/01/03 11:15:14;;;;;;;21.30;9.90;;;;;;;6.76;100.00;102571.81;6161547;23;20029;-84
2023/01/03 11:17:53;;;;;;;19.55;10.48;;;;;;;6.78;100.00;102568.97;6133500;23;20009;-84
2023/01/03 11:20:20;;;;;;;17.02;8.15;;;;;;;6.84;100.00;102565.56;6158534;23;20002;-85
2023/01/03 11:22:55;;;;;;;15.38;8.25;;;;;;;6.85;100.00;102561.03;6129857;23;20107;-84
2023/01/03 11:25:32;;;;;;;18.75;8.68;;;;;;;6.87;100.00;102565.16;6156677;23;20033;-84
2023/01/03 11:28:13;;;;;;;20.98;10.25;;;;;;;6.86;100.00;102563.50;6162332;23;20006;-84
2023/01/03 11:30:53;;;;;;;18.90;9.53;;;;;;;6.84;100.00;102562.03;6168306;23;20117;-84
2023/01/03 11:33:42;;;;;;;17.42;8.45;;;;;;;6.89;100.00;102563.13;6165762;23;20061;-85
2023/01/03 11:36:43;;;;;;;18.02;8.40;;;;;;;6.83;100.00;102558.56;6177447;23;20013;-85
2023/01/03 11:39:36;;;;;;;16.13;7.68;;;;;;;6.81;100.00;102560.59;6162848;23;20445;-83
2023/01/03 11:42:20;;;;;;;16.63;7.63;;;;;;;6.82;100.00;102557.72;6161787;23;20028;-84
2023/01/03 11:45:04;;;;;;;17.90;7.93;;;;;;;6.82;100.00;102559.59;6155034;23;20400;-84
2023/01/03 11:48:00;;;;;;;16.17;7.00;;;;;;;6.79;100.00;102552.78;6127454;23;20043;-83
2023/01/03 11:50:38;;;;;;;18.58;7.57;;;;;;;6.76;100.00;102561.16;6154077;23;20385;-83
2023/01/03 11:53:47;;;;;;;16.87;7.43;;;;;;;6.74;100.00;102562.34;6153938;23;20031;-83
2023/01/03 11:56:37;;;;;;;17.90;7.00;;;;;;;6.64;100.00;102547.53;6105608;23;20315;-83
2023/01/03 11:59:24;;;;;;;15.00;7.38;;;;;;;6.69;100.00;102546.09;6152899;23;20053;-83
2023/01/03 12:02:11;;;;;;;18.58;6.82;;;;;;;6.65;100.00;102551.00;6154317;23;20012;-84
2023/01/03 12:04:56;;;;;;;15.18;7.82;;;;;;;6.61;100.00;102539.91;6155758;23;20330;-83
2023/01/03 12:07:47;;;;;;;16.45;8.02;;;;;;;6.69;100.00;102544.28;6166896;23;20005;-83
2023/01/03 12:10:33;;;;;;;17.98;8.80;;;;;;;6.87;100.00;102543.00;6113568;23;20080;-83
2023/01/03 12:13:09;;;;;;;19.23;8.13;;;;;;;7.01;100.00;102539.44;6162749;23;20009;-83
2023/01/03 12:15:46;;;;;;;14.63;7.10;;;;;;;7.08;100.00;102532.34;6165985;23;20029;-83
2023/01/03 12:18:28;;;;;;;21.48;7.75;;;;;;;7.15;100.00;102523.56;6156608;23;20071;-84
2023/01/03 12:20:58;;;;;;;14.93;6.80;;;;;;;7.16;100.00;102519.88;6155747;23;20009;-84
2023/01/03 12:23:42;;;;;;;13.30;6.78;;;;;;;7.21;100.00;102520.94;6156367;23;20017;-84
2023/01/03 12:26:13;;;;;;;14.13;7.07;;;;;;;7.23;100.00;102520.75;6097934;23;20041;-85
2023/01/03 12:29:05;;;;;;;15.07;7.10;;;;;;;7.33;100.00;102518.56;6125805;23;20009;-85
2023/01/03 12:31:36;;;;;;;11.73;6.77;;;;;;;7.44;100.00;102517.22;6123518;23;20155;-84
2023/01/03 12:34:29;;;;;;;12.68;7.32;;;;;;;7.49;100.00;102524.63;6124268;23;20053;-85
2023/01/03 12:37:16;;;;;;;12.60;6.20;;;;;;;7.47;100.00;102519.50;6118478;23;20016;-84
2023/01/03 12:39:58;;;;;;;12.38;6.45;;;;;;;7.54;100.00;102506.19;6123675;23;20021;-84